createdAt,value
2019-02-08T00:00:00.953Z,2.00
2019-02-08T00:02:30.728Z,1.90
2019-02-08T00:04:57.258Z,2.00
2019-02-08T00:07:23.758Z,1.80
2019-02-08T00:09:50.686Z,1.77
2019-02-08T00:12:19.656Z,1.67
2019-02-08T00:14:45.506Z,1.60
2019-02-08T00:17:12.161Z,1.83
2019-02-08T00:19:38.922Z,2.07
2019-02-08T00:22:06.534Z,2.00
2019-02-08T00:24:35.541Z,1.40
2019-02-08T00:27:02.900Z,1.40
2019-02-08T00:29:29.678Z,1.50
2019-02-08T00:31:55.971Z,1.80
2019-02-08T00:34:22.717Z,1.63
2019-02-08T00:36:49.342Z,1.40
2019-02-08T00:39:15.624Z,1.37
2019-02-08T00:41:42.263Z,1.70
2019-02-08T00:44:09.094Z,1.70
2019-02-08T00:46:37.621Z,1.67
2019-02-08T00:49:04.324Z,1.60
2019-02-08T00:51:30.990Z,1.93
2019-02-08T00:53:59.317Z,1.90
2019-02-08T00:56:25.582Z,1.63
2019-02-08T00:58:51.868Z,1.70
2019-02-08T01:01:18.482Z,2.00
2019-02-08T01:03:46.137Z,1.40
2019-02-08T01:06:13.017Z,1.57
2019-02-08T01:08:39.321Z,1.50
2019-02-08T01:11:05.947Z,1.60
2019-02-08T01:13:32.238Z,1.50
2019-02-08T01:15:58.869Z,1.47
2019-02-08T01:18:25.634Z,1.87
2019-02-08T01:20:53.457Z,1.40
2019-02-08T01:23:21.721Z,1.60
2019-02-08T01:25:49.422Z,1.70
2019-02-08T01:28:15.690Z,1.40
2019-02-08T01:30:41.965Z,1.33
2019-02-08T01:33:08.677Z,1.30
2019-02-08T01:35:35.442Z,1.70
2019-02-08T01:38:02.754Z,1.33
2019-02-08T01:40:31.289Z,1.47
2019-02-08T01:42:58.979Z,1.57
2019-02-08T01:45:27.443Z,1.30
2019-02-08T01:47:54.109Z,1.60
2019-02-08T01:50:22.641Z,1.63
2019-02-08T01:52:49.127Z,2.03
2019-02-08T01:55:16.078Z,1.60
2019-02-08T01:57:42.828Z,1.50
2019-02-08T02:00:15.956Z,1.50
2019-02-08T02:02:44.485Z,1.30
2019-02-08T02:05:11.761Z,1.70
2019-02-08T02:07:38.460Z,1.33
2019-02-08T02:10:08.541Z,1.40
2019-02-08T02:12:35.425Z,1.47
2019-02-08T02:15:03.979Z,1.40
2019-02-08T02:17:30.605Z,1.60
2019-02-08T02:19:57.105Z,1.43
2019-02-08T02:22:23.962Z,1.73
2019-02-08T02:24:50.629Z,1.60
2019-02-08T02:27:19.102Z,1.50
2019-02-08T02:29:47.951Z,1.47
2019-02-08T02:32:15.039Z,1.50
2019-02-08T02:34:41.406Z,1.50
2019-02-08T02:37:08.855Z,1.27
2019-02-08T02:39:35.577Z,1.73
2019-02-08T02:42:02.562Z,1.23
2019-02-08T02:44:28.929Z,1.50
2019-02-08T02:46:55.825Z,1.30
2019-02-08T02:49:21.998Z,1.40
2019-02-08T02:51:48.266Z,1.40
2019-02-08T02:54:14.929Z,1.23
2019-02-08T02:56:41.546Z,1.47
2019-02-08T02:59:08.042Z,1.53
2019-02-08T03:01:34.773Z,1.57
2019-02-08T03:04:01.175Z,1.30
2019-02-08T03:06:27.733Z,1.43
2019-02-08T03:08:54.221Z,1.20
2019-02-08T03:11:22.185Z,1.37
2019-02-08T03:13:50.457Z,1.20
2019-02-08T03:16:18.235Z,1.10
2019-02-08T03:18:44.490Z,1.47
2019-02-08T03:21:10.788Z,1.50
2019-02-08T03:23:38.796Z,1.40
2019-02-08T03:26:05.962Z,1.20
2019-02-08T03:28:32.606Z,1.43
2019-02-08T03:30:59.164Z,1.30
2019-02-08T03:33:25.859Z,1.40
2019-02-08T03:35:53.588Z,1.47
2019-02-08T03:38:21.914Z,1.63
2019-02-08T03:40:48.522Z,1.60
2019-02-08T03:43:15.005Z,1.60
2019-02-08T03:45:45.884Z,1.90
2019-02-08T03:48:12.469Z,1.30
2019-02-08T03:50:39.178Z,1.80
2019-02-08T03:53:06.155Z,1.40
2019-02-08T03:55:32.430Z,1.40
2019-02-08T03:57:58.796Z,1.63
2019-02-08T04:00:34.386Z,1.50
2019-02-08T04:03:01.117Z,1.70
2019-02-08T04:05:28.162Z,1.60
2019-02-08T04:07:54.530Z,1.20
2019-02-08T04:10:21.667Z,1.23
2019-02-08T04:12:48.281Z,1.33
2019-02-08T04:15:18.705Z,1.70
2019-02-08T04:17:45.162Z,1.33
2019-02-08T04:20:14.305Z,1.80
2019-02-08T04:22:41.069Z,1.27
2019-02-08T04:25:09.002Z,1.57
2019-02-08T04:27:35.655Z,1.50
2019-02-08T04:30:05.286Z,1.83
2019-02-08T04:32:31.571Z,1.20
2019-02-08T04:34:58.459Z,1.10
2019-02-08T04:37:25.149Z,1.50
2019-02-08T04:39:51.421Z,1.60
2019-02-08T04:42:17.774Z,1.40
2019-02-08T04:44:44.652Z,1.30
2019-02-08T04:47:11.282Z,1.00
2019-02-08T04:49:38.180Z,1.70
2019-02-08T04:52:04.897Z,1.30
2019-02-08T04:54:38.187Z,1.53
2019-02-08T04:57:02.307Z,1.50
2019-02-08T04:59:29.915Z,1.40
2019-02-08T05:01:56.170Z,1.73
2019-02-08T05:04:22.562Z,1.60
2019-02-08T05:06:49.206Z,1.47
2019-02-08T05:09:15.669Z,1.40
2019-02-08T05:11:42.081Z,1.93
2019-02-08T05:14:08.561Z,1.50
2019-02-08T05:16:34.846Z,1.07
2019-02-08T05:19:01.478Z,1.90
2019-02-08T05:21:27.907Z,1.67
2019-02-08T05:23:54.537Z,1.27
2019-02-08T05:26:21.162Z,1.50
2019-02-08T05:28:48.173Z,1.63
2019-02-08T05:31:15.409Z,1.00
2019-02-08T05:33:42.434Z,1.40
2019-02-08T05:36:09.061Z,1.87
2019-02-08T05:38:36.738Z,1.77
2019-02-08T05:41:03.745Z,1.50
2019-02-08T05:43:30.318Z,1.70
2019-02-08T05:45:57.755Z,1.70
2019-02-08T05:48:24.022Z,1.80
2019-02-08T05:50:50.650Z,2.43
2019-02-08T05:53:17.583Z,1.77
2019-02-08T05:55:45.139Z,2.13
2019-02-08T05:58:11.619Z,1.70
2019-02-08T06:00:42.369Z,1.87
2019-02-08T06:03:08.995Z,2.00
2019-02-08T06:05:36.242Z,1.77
2019-02-08T06:08:04.020Z,1.77
2019-02-08T06:10:30.588Z,2.10
2019-02-08T06:12:57.304Z,2.33
2019-02-08T06:15:25.035Z,1.73
2019-02-08T06:17:52.493Z,2.23
2019-02-08T06:20:20.009Z,1.73
2019-02-08T06:22:48.565Z,2.17
2019-02-08T06:25:16.226Z,2.23
2019-02-08T06:27:42.846Z,1.80
2019-02-08T06:30:13.725Z,1.80
2019-02-08T06:32:40.449Z,1.87
2019-02-08T06:35:07.478Z,1.57
2019-02-08T06:37:34.204Z,1.80
2019-02-08T06:40:00.968Z,1.80
2019-02-08T06:42:27.600Z,1.50
2019-02-08T06:44:53.881Z,1.60
2019-02-08T06:47:20.162Z,1.90
2019-02-08T06:49:46.846Z,1.57
2019-02-08T06:52:14.550Z,1.70
2019-02-08T06:54:41.229Z,1.50
2019-02-08T06:57:10.010Z,1.83
2019-02-08T06:59:38.451Z,1.97
2019-02-08T07:02:25.002Z,1.77
2019-02-08T07:04:56.154Z,1.87
2019-02-08T07:07:24.706Z,1.80
2019-02-08T07:10:05.009Z,1.90
2019-02-08T07:12:33.233Z,1.63
2019-02-08T07:15:10.442Z,2.37
2019-02-08T07:17:41.617Z,2.20
2019-02-08T07:20:23.157Z,2.03
2019-02-08T07:23:00.326Z,1.70
2019-02-08T07:25:28.876Z,1.77
2019-02-08T07:27:58.170Z,1.77
2019-02-08T07:30:43.710Z,2.17
2019-02-08T07:33:12.263Z,1.50
2019-02-08T07:35:46.634Z,1.53
2019-02-08T07:38:18.061Z,1.80
2019-02-08T07:40:51.016Z,1.80
2019-02-08T07:43:19.405Z,2.13
2019-02-08T07:45:57.042Z,1.37
2019-02-08T07:48:26.004Z,1.80
2019-02-08T07:50:57.248Z,1.83
2019-02-08T07:53:31.626Z,1.70
2019-02-08T07:56:16.453Z,2.00
2019-02-08T07:58:45.529Z,1.60
2019-02-08T08:01:16.806Z,1.50
2019-02-08T08:03:45.439Z,1.50
2019-02-08T08:06:19.953Z,1.80
2019-02-08T08:09:05.184Z,1.57
2019-02-08T08:11:48.813Z,2.10
2019-02-08T08:14:20.210Z,1.67
2019-02-08T08:16:57.602Z,1.67
2019-02-08T08:19:26.261Z,1.70
2019-02-08T08:21:54.898Z,2.00
2019-02-08T08:24:25.333Z,1.97
2019-02-08T08:27:04.726Z,2.00
2019-02-08T08:29:35.757Z,2.07
2019-02-08T08:32:06.350Z,1.80
2019-02-08T08:34:47.074Z,1.57
2019-02-08T08:37:37.623Z,1.60
2019-02-08T08:40:27.295Z,1.80
2019-02-08T08:45:53.957Z,1.77
2019-02-08T08:48:26.339Z,1.70
2019-02-08T08:51:08.557Z,2.10
2019-02-08T08:53:40.017Z,1.90
2019-02-08T08:56:10.117Z,1.60
2019-02-08T08:58:55.178Z,2.10
2019-02-08T09:04:41.832Z,2.00
2019-02-08T09:07:16.324Z,2.20
2019-02-08T09:09:43.728Z,2.80
2019-02-08T09:12:19.849Z,1.70
2019-02-08T09:14:52.837Z,1.93
2019-02-08T09:17:30.362Z,2.33
2019-02-08T11:39:47.711Z,1.00
2019-02-08T11:42:14.258Z,1.13
2019-02-08T11:44:40.531Z,1.03
2019-02-08T11:47:07.209Z,0.90
2019-02-08T11:49:33.846Z,1.10
2019-02-08T11:52:00.528Z,0.90
2019-02-08T11:54:29.098Z,0.87
2019-02-08T11:56:55.378Z,1.13
2019-02-08T11:59:22.269Z,1.07
2019-02-08T12:01:51.119Z,0.93
2019-02-08T12:04:17.913Z,0.80
2019-02-08T12:06:44.554Z,1.00
2019-02-08T12:09:11.913Z,1.07
2019-02-08T12:11:38.671Z,1.10
2019-02-08T12:14:05.544Z,1.00
2019-02-08T12:16:32.170Z,0.97
2019-02-08T12:18:58.808Z,0.80
2019-02-08T12:21:25.438Z,1.03
2019-02-08T12:23:51.709Z,1.10
2019-02-08T12:26:19.159Z,0.90
2019-02-08T12:28:45.637Z,0.80
2019-02-08T12:31:12.305Z,0.90
2019-02-08T12:33:38.678Z,0.50
2019-02-08T12:36:05.357Z,0.93
2019-02-08T12:38:31.678Z,0.87
2019-02-08T12:40:58.289Z,1.10
2019-02-08T12:43:24.911Z,1.40
2019-02-08T12:45:51.557Z,1.10
2019-02-08T12:48:18.185Z,0.80
2019-02-08T12:50:44.817Z,0.77
2019-02-08T12:53:11.321Z,1.10
2019-02-08T12:55:38.236Z,1.07
2019-02-08T12:58:04.537Z,1.07
2019-02-08T13:00:31.169Z,0.80
2019-02-08T13:02:57.831Z,1.20
2019-02-08T13:05:24.544Z,1.10
2019-02-08T13:07:51.395Z,0.90
2019-02-08T13:10:21.082Z,0.93
2019-02-08T13:12:47.742Z,0.70
2019-02-08T13:15:14.960Z,0.87
2019-02-08T13:17:41.604Z,0.67
2019-02-08T13:20:09.682Z,0.67
2019-02-08T13:22:36.978Z,0.57
2019-02-08T13:25:04.818Z,0.50
2019-02-08T13:27:31.094Z,0.83
2019-02-08T13:29:57.661Z,0.90
2019-02-08T13:32:24.304Z,0.80
2019-02-08T13:34:50.929Z,0.60
2019-02-08T13:37:17.239Z,0.90
2019-02-08T13:39:44.997Z,0.90
2019-02-08T13:42:11.886Z,0.93
2019-02-08T13:44:38.514Z,0.90
2019-02-08T13:47:05.185Z,0.70
2019-02-08T13:49:34.729Z,0.77
2019-02-08T13:52:01.384Z,0.67
2019-02-08T13:54:28.306Z,0.73
2019-02-08T13:57:00.511Z,0.90
2019-02-08T13:59:23.737Z,0.60
2019-02-08T14:01:50.358Z,0.70
2019-02-08T14:04:16.632Z,0.90
2019-02-08T14:06:43.242Z,0.80
2019-02-08T14:09:11.934Z,1.00
2019-02-08T14:11:38.266Z,0.83
2019-02-08T14:14:04.801Z,0.93
2019-02-08T14:16:31.418Z,0.83
2019-02-08T14:18:58.073Z,0.63
2019-02-08T14:21:24.370Z,1.03
2019-02-08T14:23:51.306Z,0.80
2019-02-08T14:26:18.026Z,0.70
2019-02-08T14:28:45.113Z,0.80
2019-02-08T14:31:11.735Z,0.70
2019-02-08T14:33:38.065Z,0.70
2019-02-08T14:36:04.803Z,0.80
2019-02-08T14:38:31.444Z,0.83
2019-02-08T14:40:58.094Z,0.60
2019-02-08T14:43:24.354Z,0.67
2019-02-08T14:45:51.273Z,0.90
2019-02-08T14:48:17.900Z,0.63
2019-02-08T14:50:44.561Z,0.77
2019-02-08T14:53:11.247Z,1.00
2019-02-08T14:55:38.050Z,0.70
2019-02-08T14:58:06.272Z,0.70
2019-02-08T15:00:32.645Z,0.50
2019-02-08T15:02:59.269Z,0.90
2019-02-08T15:05:25.893Z,0.70
2019-02-08T15:07:52.578Z,0.40
2019-02-08T15:10:20.501Z,0.67
2019-02-08T15:12:47.195Z,0.60
2019-02-08T15:15:13.658Z,0.50
2019-02-08T15:17:40.284Z,0.90
2019-02-08T15:20:08.809Z,0.60
2019-02-08T15:22:35.427Z,0.93
2019-02-08T15:25:03.389Z,0.63
2019-02-08T15:27:30.361Z,0.57
2019-02-08T15:29:57.010Z,0.67
2019-02-08T15:32:23.646Z,0.60
2019-02-08T15:34:50.300Z,0.50
2019-02-08T15:37:16.922Z,0.43
2019-02-08T15:39:43.539Z,0.53
2019-02-08T15:42:10.180Z,0.80
2019-02-08T15:44:36.447Z,0.60
2019-02-08T15:47:03.226Z,0.60
2019-02-08T15:49:29.844Z,0.80
2019-02-08T15:51:58.396Z,0.60
2019-02-08T15:54:24.647Z,0.87
2019-02-08T15:56:50.962Z,1.40
2019-02-08T15:59:17.877Z,1.17
2019-02-08T16:01:44.631Z,0.97
2019-02-08T16:04:11.562Z,0.97
2019-02-08T16:06:38.344Z,0.90
2019-02-08T16:09:07.269Z,1.00
2019-02-08T16:11:33.570Z,1.00
2019-02-08T16:14:00.198Z,1.20
2019-02-08T16:16:26.821Z,1.43
2019-02-08T16:18:53.566Z,2.00
2019-02-08T16:21:20.039Z,1.80
2019-02-08T16:23:47.669Z,1.30
2019-02-08T16:26:13.942Z,1.40
2019-02-08T16:28:40.245Z,1.10
2019-02-08T16:31:06.998Z,0.90
2019-02-08T16:33:33.670Z,0.83
2019-02-08T16:36:00.090Z,0.90
2019-02-08T16:38:28.331Z,0.90
2019-02-08T16:40:54.957Z,1.00
2019-02-08T16:43:21.627Z,0.97
2019-02-08T16:45:48.282Z,0.80
2019-02-08T16:48:14.947Z,1.27
2019-02-08T16:50:42.108Z,0.90
2019-02-08T16:53:09.373Z,1.10
2019-02-08T16:55:36.101Z,0.70
2019-02-08T16:58:03.849Z,0.80
2019-02-08T17:00:34.717Z,1.00
2019-02-08T17:03:03.433Z,0.90
2019-02-08T17:05:30.160Z,0.80
2019-02-08T17:07:56.813Z,0.73
2019-02-08T17:10:23.178Z,0.80
2019-02-08T17:12:49.694Z,0.80
2019-02-08T17:15:17.449Z,1.00
2019-02-08T17:17:44.071Z,1.00
2019-02-08T17:20:17.210Z,0.70
2019-02-08T17:22:43.892Z,0.80
2019-02-08T17:25:10.650Z,0.90
2019-02-08T17:27:37.298Z,0.80
2019-02-08T17:30:08.890Z,0.90
2019-02-08T17:32:35.508Z,0.70
2019-02-08T17:35:03.263Z,0.80
2019-02-08T17:37:29.538Z,0.60
2019-02-08T17:39:56.210Z,0.60
2019-02-08T17:42:22.829Z,0.90
2019-02-08T17:53:35.626Z,0.77
2019-02-08T17:56:04.836Z,1.00
2019-02-08T17:58:32.264Z,1.00
2019-02-08T18:00:59.262Z,1.00
2019-02-08T18:03:25.724Z,0.93
2019-02-08T18:05:55.174Z,1.07
2019-02-08T18:08:21.874Z,0.87
2019-02-08T18:10:48.145Z,1.23
2019-02-08T18:13:15.271Z,1.20
2019-02-08T18:15:41.926Z,0.63
2019-02-08T18:18:10.597Z,1.37
2019-02-08T18:20:47.912Z,0.83
2019-02-08T18:23:14.454Z,0.90
2019-02-08T18:25:41.258Z,0.87
2019-02-08T18:28:11.150Z,0.90
2019-02-08T18:30:36.549Z,0.80
2019-02-08T18:33:03.497Z,1.10
2019-02-08T18:35:30.161Z,1.00
2019-02-08T18:37:58.547Z,1.30
2019-02-08T18:40:25.206Z,1.10
2019-02-08T18:42:51.927Z,1.00
2019-02-08T18:45:22.701Z,1.20
2019-02-08T18:47:49.941Z,1.13
2019-02-08T18:50:17.869Z,1.23
2019-02-08T18:52:44.253Z,1.10
2019-02-08T18:55:10.970Z,0.90
2019-02-08T18:57:37.621Z,1.10
2019-02-08T19:00:14.154Z,1.00
2019-02-08T19:02:40.429Z,1.30
2019-02-08T19:05:08.496Z,0.77
2019-02-08T19:07:35.150Z,1.77
2019-02-08T19:10:01.589Z,1.47
2019-02-08T19:12:27.829Z,1.30
2019-02-08T19:14:54.138Z,1.40
2019-02-08T19:17:20.758Z,1.10
2019-02-08T19:19:47.406Z,1.60
2019-02-08T19:22:14.043Z,1.10
2019-02-08T19:24:40.700Z,1.50
2019-02-08T19:27:06.945Z,1.53
2019-02-08T19:29:33.611Z,1.50
2019-02-08T19:32:00.261Z,1.40
2019-02-08T19:34:26.806Z,1.50
2019-02-08T19:36:53.068Z,1.57
2019-02-08T19:39:19.719Z,1.80
2019-02-08T19:41:46.401Z,1.90
2019-02-08T19:44:12.785Z,1.87
2019-02-08T19:46:39.312Z,1.40
2019-02-08T19:49:05.930Z,2.00
2019-02-08T19:51:32.637Z,1.60
2019-02-08T19:53:59.054Z,4.57
2019-02-08T19:56:25.642Z,3.57
2019-02-08T19:58:51.928Z,2.50
2019-02-08T20:01:18.548Z,1.80
2019-02-08T20:03:45.164Z,1.80
2019-02-08T20:06:11.881Z,1.70
2019-02-08T20:08:38.534Z,1.70
2019-02-08T20:11:05.536Z,1.37
2019-02-08T20:13:32.197Z,1.20
2019-02-08T20:15:58.834Z,1.30
2019-02-08T20:18:25.174Z,1.63
2019-02-08T20:20:51.463Z,1.73
2019-02-08T20:23:17.714Z,1.20
2019-02-08T20:25:44.391Z,1.33
2019-02-08T20:28:10.953Z,1.10
2019-02-08T20:30:37.742Z,1.60
2019-02-08T20:33:06.292Z,1.30
2019-02-08T20:35:33.009Z,1.33
2019-02-08T20:37:59.733Z,1.53
2019-02-08T20:40:28.537Z,1.10
2019-02-08T20:42:54.931Z,1.57
2019-02-08T20:45:22.631Z,1.60
2019-02-08T20:47:49.317Z,1.57
2019-02-08T20:50:16.593Z,1.23
2019-02-08T20:52:43.502Z,1.50
2019-02-08T20:55:10.230Z,1.95
2019-02-08T20:57:37.022Z,1.60
2019-02-08T21:00:19.633Z,1.73
2019-02-08T21:02:46.736Z,1.40
2019-02-08T21:05:13.877Z,1.50
2019-02-08T21:07:41.759Z,1.50
2019-02-08T21:10:08.426Z,1.40
2019-02-08T21:12:35.046Z,1.17
2019-02-08T21:15:01.714Z,1.10
2019-02-08T21:17:28.381Z,1.03
2019-02-08T21:19:55.029Z,1.30
2019-02-08T21:22:21.645Z,1.13
2019-02-08T21:24:48.136Z,1.30
2019-02-08T21:27:14.486Z,1.47
2019-02-08T21:29:41.118Z,1.07
2019-02-08T21:32:07.775Z,1.00
2019-02-08T21:34:35.369Z,1.47
2019-02-08T21:37:01.782Z,1.30
2019-02-08T21:39:28.166Z,1.30
2019-02-08T21:41:56.686Z,1.40
2019-02-08T21:44:26.036Z,1.37
2019-02-08T21:46:52.784Z,1.13
2019-02-08T21:49:20.606Z,1.60
2019-02-08T21:51:49.446Z,1.50
2019-02-08T21:54:16.504Z,1.50
2019-02-08T21:56:43.140Z,1.23
2019-02-08T21:59:09.429Z,1.20
2019-02-08T22:01:35.794Z,1.40
2019-02-08T22:04:02.505Z,1.20
2019-02-08T22:06:29.504Z,1.37
2019-02-08T22:08:56.130Z,1.23
2019-02-08T22:11:22.862Z,1.43
2019-02-08T22:13:49.172Z,1.53
2019-02-08T22:16:16.311Z,1.60
2019-02-08T22:18:42.938Z,1.47
2019-02-08T22:21:09.557Z,1.87
2019-02-08T22:23:36.228Z,1.23
2019-02-08T22:26:04.485Z,0.80
2019-02-08T22:28:31.916Z,0.93
2019-02-08T22:33:24.645Z,0.90
2019-02-08T22:35:51.329Z,1.27
2019-02-08T22:38:18.066Z,1.00
2019-02-08T22:40:44.537Z,0.93
2019-02-08T22:43:11.161Z,1.07
2019-02-08T22:45:39.582Z,1.07
2019-02-08T22:48:06.517Z,0.90
2019-02-08T22:50:33.390Z,1.00
2019-02-08T22:52:59.680Z,0.90
2019-02-08T22:55:27.330Z,1.03
2019-02-08T22:57:54.149Z,1.10
2019-02-08T23:00:35.161Z,0.80
2019-02-08T23:03:05.280Z,0.93
2019-02-08T23:05:31.590Z,0.90
2019-02-08T23:08:00.493Z,1.40
2019-02-08T23:10:29.038Z,1.23
2019-02-08T23:12:55.430Z,0.90
2019-02-08T23:15:21.998Z,1.10
2019-02-08T23:17:48.278Z,1.20
2019-02-08T23:20:15.014Z,0.77
2019-02-08T23:22:41.665Z,1.00
2019-02-08T23:25:08.385Z,1.00
2019-02-08T23:27:34.821Z,1.20
2019-02-08T23:30:01.538Z,1.17
2019-02-08T23:32:29.070Z,1.17
2019-02-08T23:34:56.755Z,1.00
2019-02-08T23:37:26.109Z,1.50
2019-02-08T23:39:52.631Z,1.00
2019-02-08T23:42:19.268Z,1.10
2019-02-08T23:44:45.930Z,1.20
2019-02-08T23:47:12.204Z,1.60
2019-02-08T23:49:39.869Z,1.60
2019-02-08T23:52:06.243Z,1.73
2019-02-08T23:54:33.025Z,1.80
2019-02-08T23:56:59.637Z,1.70
2019-02-08T23:59:27.880Z,2.10
